Time;durP1;ratioP1;P1;durP2;ratioP2;P2;SDS_P1;SDS_P2;PMS_P1;PMS_P2;Temp;Humidity;BMP_temperature;BMP_pressure;BME280_temperature;BME280_humidity;BME280_pressure;Samples;Min_cycle;Max_cycle;Signal;HPM_P1;HPM_P2
2022/02/27 00:02:24;;;;;;;7.00;2.90;;;;;;;18.29;32.29;101996.96;100256;1362;72651;-81
2022/02/27 00:05:14;;;;;;;5.30;3.10;;;;;;;18.29;32.13;101998.02;100297;1362;75791;-85
2022/02/27 00:08:12;;;;;;;5.70;3.20;;;;;;;18.30;32.15;101999.27;99814;1367;61508;-87
2022/02/27 00:11:06;;;;;;;5.00;2.50;;;;;;;18.30;32.16;101998.03;99740;1367;61368;-82
2022/02/27 00:14:21;;;;;;;5.00;3.00;;;;;;;18.29;31.97;101996.77;100027;1364;72894;-83
2022/02/27 00:17:16;;;;;;;4.90;2.90;;;;;;;18.30;32.09;101989.66;99954;1366;74725;-81
2022/02/27 00:20:32;;;;;;;4.80;2.80;;;;;;;18.29;32.17;101993.59;99996;1364;61172;-83
2022/02/27 00:23:37;;;;;;;;;;;;;;;;;;;;;
2022/02/27 00:26:57;;;;;;;5.50;2.90;;;;;;;18.28;32.15;101984.37;100429;1357;71539;-83
2022/02/27 00:30:10;;;;;;;4.90;2.80;;;;;;;18.28;32.04;101982.77;100414;1358;73569;-87
2022/02/27 00:33:35;;;;;;;;;;;;;;;;;;;;;
2022/02/27 00:37:01;;;;;;;;;;;;;;;;;;;;;
2022/02/27 00:39:37;;;;;;;5.80;3.10;;;;;;;18.27;32.14;101974.76;101184;1352;72756;-83
2022/02/27 00:42:32;;;;;;;4.30;2.50;;;;;;;18.28;32.18;101972.78;101066;1352;74981;-82
2022/02/27 00:45:34;;;;;;;5.30;3.10;;;;;;;18.28;32.05;101974.73;101083;1351;61339;-82
2022/02/27 00:48:42;;;;;;;4.90;2.90;;;;;;;18.28;32.05;101975.64;101029;1354;61267;-84
2022/02/27 00:51:32;;;;;;;5.10;2.70;;;;;;;18.27;31.97;101973.52;100830;1356;72930;-83
2022/02/27 00:53:57;;;;;;;5.30;3.10;;;;;;;18.27;32.02;101975.30;100323;1359;76100;-81
2022/02/27 00:57:00;;;;;;;;;;;;;;;;;;;;;
2022/02/27 01:00:17;;;;;;;;;;;;;;;;;;;;;
2022/02/27 01:03:05;;;;;;;4.70;2.70;;;;;;;18.25;32.03;101982.66;101360;1353;73025;-82
2022/02/27 01:06:06;;;;;;;5.40;3.00;;;;;;;18.26;32.04;101987.48;100680;1356;74887;-83
2022/02/27 01:09:20;;;;;;;;;;;;;;;;;;;;;
2022/02/27 01:12:32;;;;;;;5.30;3.10;;;;;;;18.24;32.01;101984.67;101137;1352;61598;-82
2022/02/27 01:15:18;;;;;;;5.40;3.10;;;;;;;18.24;31.88;101988.59;100803;1356;72937;-82
2022/02/27 01:18:13;;;;;;;;;;;;;;;;;;;;;
2022/02/27 01:21:14;;;;;;;;;;;;;;;;;;;;;
2022/02/27 01:24:12;;;;;;;4.80;2.90;;;;;;;18.24;32.01;101987.16;101382;1351;61352;-81
2022/02/27 01:27:29;;;;;;;4.10;2.70;;;;;;;18.24;31.98;101991.99;101598;1343;73942;-84
2022/02/27 01:30:14;;;;;;;5.00;2.80;;;;;;;18.23;31.89;101992.20;101731;1343;76788;-85
2022/02/27 01:33:39;;;;;;;5.20;2.80;;;;;;;18.24;31.99;101996.80;102100;1337;61731;-85
2022/02/27 01:36:29;;;;;;;5.00;2.80;;;;;;;18.23;31.99;101994.36;101848;1341;61495;-83
2022/02/27 01:39:33;;;;;;;5.40;2.80;;;;;;;18.23;31.94;101992.38;101995;1335;73363;-83
2022/02/27 01:42:49;;;;;;;;;;;;;;;;;;;;;
2022/02/27 01:45:55;;;;;;;6.60;2.90;;;;;;;18.23;31.97;101992.77;101847;1341;61482;-83
2022/02/27 01:49:02;;;;;;;4.60;2.70;;;;;;;18.23;31.93;101998.11;101864;1340;61568;-83
2022/02/27 01:52:10;;;;;;;4.50;2.80;;;;;;;18.22;31.91;101993.33;102013;1334;74439;-88
2022/02/27 01:55:17;;;;;;;5.50;3.10;;;;;;;18.22;31.91;101991.20;102230;1335;75882;-83
2022/02/27 01:58:11;;;;;;;5.60;3.00;;;;;;;18.22;31.94;101992.79;102127;1332;61533;-84
2022/02/27 02:01:43;;;;;;;5.90;2.80;;;;;;;18.22;31.95;101994.73;102240;1335;61201;-82
2022/02/27 02:04:46;;;;;;;;;;;;;;;;;;;;;
2022/02/27 02:07:51;;;;;;;4.80;2.80;;;;;;;18.21;31.86;101991.41;101864;1340;73972;-83
2022/02/27 02:10:37;;;;;;;5.60;3.30;;;;;;;18.21;31.81;101998.35;101739;1344;61224;-84
2022/02/27 02:13:33;;;;;;;5.40;3.20;;;;;;;18.21;31.79;101992.83;101779;1338;61301;-86
2022/02/27 02:16:36;;;;;;;6.10;3.30;;;;;;;18.21;31.66;101992.66;101763;1341;72860;-82
2022/02/27 02:19:52;;;;;;;6.10;2.70;;;;;;;18.20;31.73;101994.81;101889;1335;75645;-82
2022/02/27 02:22:49;;;;;;;4.60;2.70;;;;;;;18.20;31.72;101995.70;102355;1334;61233;-83
2022/02/27 02:25:47;;;;;;;5.30;3.10;;;;;;;18.20;31.70;101992.69;102162;1335;61218;-85
2022/02/27 02:28:58;;;;;;;5.30;3.20;;;;;;;18.20;31.76;101992.36;101868;1341;74158;-84
2022/02/27 02:31:52;;;;;;;4.40;2.90;;;;;;;18.19;31.74;101990.59;101801;1341;73897;-81
2022/02/27 02:35:00;;;;;;;6.30;3.00;;;;;;;18.19;31.65;101988.83;101764;1344;61225;-84
2022/02/27 02:38:12;;;;;;;5.20;3.00;;;;;;;18.18;31.80;101989.38;101721;1344;61451;-86
2022/02/27 02:41:30;;;;;;;;;;;;;;;;;;;;;
2022/02/27 02:44:47;;;;;;;6.70;3.20;;;;;;;18.18;31.64;101987.08;101818;1340;74866;-82
2022/02/27 02:48:08;;;;;;;4.50;3.00;;;;;;;18.18;31.79;101987.45;102159;1334;61332;-82
2022/02/27 02:51:13;;;;;;;;;;;;;;;;;;;;;
2022/02/27 02:54:26;;;;;;;5.70;3.10;;;;;;;18.18;31.62;101989.05;102399;1331;74095;-86
2022/02/27 02:57:16;;;;;;;6.10;3.30;;;;;;;18.18;31.69;101990.31;102087;1335;76163;-82
2022/02/27 03:00:41;;;;;;;;;;;;;;;;;;;;;
2022/02/27 03:03:58;;;;;;;5.10;3.00;;;;;;;18.17;31.56;101992.10;101865;1341;61528;-81
2022/02/27 03:07:24;;;;;;;5.10;2.90;;;;;;;18.16;31.58;101997.84;101817;1341;71534;-82
2022/02/27 03:10:21;;;;;;;;;;;;;;;;;;;;;
2022/02/27 03:13:03;;;;;;;6.60;3.40;;;;;;;18.17;31.63;101999.58;101811;1341;61660;-83
2022/02/27 03:16:22;;;;;;;6.20;3.10;;;;;;;18.17;31.55;101997.63;101810;1341;61818;-81
2022/02/27 03:19:29;;;;;;;5.70;3.00;;;;;;;18.17;31.61;102001.03;101630;1347;73937;-82
2022/02/27 03:22:28;;;;;;;5.10;3.00;;;;;;;18.16;31.64;102006.41;101109;1353;74962;-83
2022/02/27 03:25:27;;;;;;;;;;;;;;;;;;;;;
2022/02/27 03:28:15;;;;;;;5.90;3.20;;;;;;;18.15;31.50;101999.13;100737;1358;61626;-84
2022/02/27 03:31:22;;;;;;;5.40;3.20;;;;;;;18.15;31.60;102001.96;100741;1356;74356;-83
2022/02/27 03:35:09;;;;;;;8.30;3.00;;;;;;;18.15;31.57;102002.73;100820;1355;73582;-80
2022/02/27 03:38:22;;;;;;;5.60;3.00;;;;;;;18.14;31.54;102000.60;101015;1356;61320;-85
2022/02/27 03:41:42;;;;;;;;;;;;;;;;;;;;;
2022/02/27 03:44:39;;;;;;;;;;;;;;;;;;;;;
2022/02/27 03:48:01;;;;;;;;;;;;;;;;;;;;;
2022/02/27 03:51:13;;;;;;;;;;;;;;;;;;;;;
2022/02/27 03:57:16;;;;;;;4.60;3.00;;;;;;;18.13;31.53;101989.42;101827;1338;72838;-83
2022/02/27 04:00:39;;;;;;;4.90;3.10;;;;;;;18.13;31.39;101982.46;102200;1335;74892;-82
2022/02/27 04:03:48;;;;;;;6.90;3.40;;;;;;;18.12;31.51;101974.48;102025;1338;61432;-83
2022/02/27 04:07:06;;;;;;;5.50;3.10;;;;;;;18.13;31.44;101968.77;102074;1338;61230;-82
2022/02/27 04:13:28;;;;;;;4.90;2.80;;;;;;;18.11;31.41;101951.92;101569;1347;74793;-82
2022/02/27 04:16:24;;;;;;;;;;;;;;;;;;;;;
2022/02/27 04:19:15;;;;;;;6.40;2.80;;;;;;;18.11;31.40;101964.19;101461;1350;61411;-82
2022/02/27 04:22:29;;;;;;;4.90;2.90;;;;;;;18.12;31.42;101971.83;100701;1358;74433;-85
2022/02/27 04:25:25;;;;;;;;;;;;;;;;;;;;;
2022/02/27 04:32:08;;;;;;;;;;;;;;;;;;;;;
2022/02/27 04:35:14;;;;;;;;;;;;;;;;;;;;;
2022/02/27 04:38:03;;;;;;;5.20;3.10;;;;;;;18.09;31.31;101950.38;100063;1362;74947;-82
2022/02/27 04:41:33;;;;;;;6.10;3.00;;;;;;;18.08;31.28;101950.92;100276;1361;61413;-82
2022/02/27 04:44:47;;;;;;;;;;;;;;;;;;;;;
2022/02/27 04:47:44;;;;;;;;;;;;;;;;;;;;;
2022/02/27 04:50:35;;;;;;;5.20;3.00;;;;;;;18.08;31.10;101960.02;100887;1349;74788;-82
2022/02/27 04:53:57;;;;;;;;;;;;;;;;;;;;;
2022/02/27 04:56:50;;;;;;;5.40;3.10;;;;;;;18.07;31.21;101970.92;101669;1343;61209;-86
2022/02/27 05:00:00;;;;;;;4.60;2.90;;;;;;;18.07;31.26;101981.79;101681;1343;71784;-82
2022/02/27 05:02:49;;;;;;;7.20;3.40;;;;;;;18.07;31.20;101990.00;101942;1337;74893;-82
2022/02/27 05:06:11;;;;;;;5.40;3.00;;;;;;;18.07;31.14;102001.03;101812;1341;61361;-84
2022/02/27 05:09:06;;;;;;;6.00;3.10;;;;;;;18.07;31.18;102006.56;101723;1344;61236;-82
2022/02/27 05:12:11;;;;;;;;;;;;;;;;;;;;;
2022/02/27 05:15:39;;;;;;;;;;;;;;;;;;;;;
2022/02/27 05:18:46;;;;;;;5.00;2.80;;;;;;;18.06;31.11;102016.75;101768;1344;61211;-81
2022/02/27 05:21:55;;;;;;;6.10;3.20;;;;;;;18.06;31.12;102020.14;101710;1344;61334;-84
2022/02/27 05:25:03;;;;;;;4.80;2.80;;;;;;;18.06;31.02;102022.80;101625;1345;74265;-81
2022/02/27 05:28:09;;;;;;;4.80;3.20;;;;;;;18.06;31.10;102027.61;101692;1345;75921;-83
2022/02/27 05:31:09;;;;;;;5.90;3.00;;;;;;;18.06;31.09;102033.48;101706;1345;61500;-82
2022/02/27 05:34:18;;;;;;;6.30;3.20;;;;;;;18.06;31.09;102040.42;101657;1345;61686;-81
2022/02/27 05:37:16;;;;;;;6.00;3.10;;;;;;;18.06;30.96;102048.27;101763;1342;72746;-80
2022/02/27 05:40:04;;;;;;;5.40;3.00;;;;;;;18.07;31.09;102055.02;101752;1342;75769;-83
2022/02/27 05:43:00;;;;;;;4.70;2.90;;;;;;;18.06;30.99;102064.30;101735;1343;61384;-82
2022/02/27 05:46:11;;;;;;;5.90;3.10;;;;;;;18.06;31.02;102064.49;101856;1337;61378;-82
2022/02/27 05:49:31;;;;;;;5.70;3.30;;;;;;;18.06;31.06;102071.96;101839;1340;73116;-82
2022/02/27 05:52:17;;;;;;;5.70;3.30;;;;;;;18.06;31.01;102080.00;101812;1342;74818;-83
2022/02/27 05:55:22;;;;;;;7.10;3.10;;;;;;;18.06;30.98;102080.88;101827;1337;61597;-82
2022/02/27 05:58:34;;;;;;;;;;;;;;;;;;;;;
2022/02/27 06:01:48;;;;;;;5.40;3.10;;;;;;;18.06;30.91;102081.27;102033;1335;73369;-82
2022/02/27 06:04:54;;;;;;;;;;;;;;;;;;;;;
2022/02/27 06:08:21;;;;;;;5.60;3.10;;;;;;;18.05;30.93;102091.59;101796;1341;61992;-83
2022/02/27 06:11:26;;;;;;;;;;;;;;;;;;;;;
2022/02/27 06:14:49;;;;;;;;;;;;;;;;;;;;;
2022/02/27 06:18:04;;;;;;;;;;;;;;;;;;;;;
2022/02/27 06:21:05;;;;;;;;;;;;;;;;;;;;;
2022/02/27 06:23:56;;;;;;;;;;;;;;;;;;;;;
2022/02/27 06:26:58;;;;;;;8.10;3.90;;;;;;;18.06;30.98;102097.11;101701;1344;73836;-78
2022/02/27 06:30:24;;;;;;;5.70;2.80;;;;;;;18.06;30.97;102094.64;101482;1350;73637;-83
2022/02/27 06:33:47;;;;;;;5.90;3.10;;;;;;;18.05;30.98;102091.45;101552;1350;61455;-88
2022/02/27 06:36:58;;;;;;;7.10;3.40;;;;;;;18.05;30.97;102090.40;101621;1347;61568;-82
2022/02/27 06:39:54;;;;;;;;;;;;;;;18.05;30.95;102097.69;101672;1347;74005;-81
2022/02/27 06:43:33;;;;;;;5.20;2.90;;;;;;;18.02;31.05;102101.89;101700;1344;74894;-84
2022/02/27 06:46:48;;;;;;;6.30;2.90;;;;;;;18.03;30.90;102103.46;98313;1338;5068455;-78
2022/02/27 06:49:47;;;;;;;;;;;;;;;;;;;;;
2022/02/27 06:53:02;;;;;;;;;;;;;;;18.03;30.83;102120.21;101179;1352;74553;-81
2022/02/27 06:56:08;;;;;;;;;;;;;;;;;;;;;
2022/02/27 06:59:07;;;;;;;4.10;2.80;;;;;;;18.02;30.89;102129.52;100655;1359;61535;-84
2022/02/27 07:02:14;;;;;;;6.90;3.40;;;;;;;18.02;30.95;102134.84;100685;1359;62585;-83
2022/02/27 07:05:34;;;;;;;5.30;2.80;;;;;;;18.02;30.99;102132.35;100671;1359;73983;-85
2022/02/27 07:08:30;;;;;;;4.80;2.80;;;;;;;18.02;30.76;102134.14;100196;1364;75666;-83
2022/02/27 07:11:31;;;;;;;5.90;3.10;;;;;;;18.02;30.87;102131.28;100004;1364;61265;-81
2022/02/27 07:15:07;;;;;;;;;;;;;;;;;;;;;
2022/02/27 07:18:02;;;;;;;6.40;3.60;;;;;;;18.03;30.98;102125.39;100262;1364;73926;-84
2022/02/27 07:20:50;;;;;;;5.80;3.10;;;;;;;18.03;30.96;102113.09;100228;1362;75939;-79
2022/02/27 07:24:06;;;;;;;;;;;;;;;;;;;;;
2022/02/27 07:27:20;;;;;;;6.60;2.90;;;;;;;18.03;31.03;102106.51;100181;1359;61524;-86
2022/02/27 07:30:37;;;;;;;;;;;;;;;;;;;;;
2022/02/27 07:33:45;;;;;;;5.80;3.20;;;;;;;18.02;30.92;102096.71;100309;1361;75878;-82
2022/02/27 07:36:59;;;;;;;5.30;2.80;;;;;;;18.03;30.90;102099.56;100383;1361;61041;-82
2022/02/27 07:39:58;;;;;;;;;;;;;;;;;;;;;
2022/02/27 07:42:59;;;;;;;5.70;3.30;;;;;;;18.03;31.01;102099.20;100566;1358;73804;-82
2022/02/27 07:45:46;;;;;;;5.90;3.40;;;;;;;18.02;30.96;102095.29;100970;1351;76194;-83
2022/02/27 07:49:37;;;;;;;;;;;;;;;18.03;30.92;102095.64;101391;1351;61259;-85
2022/02/27 07:52:31;;;;;;;;;;;;;;;;;;;;;
2022/02/27 07:55:57;;;;;;;5.80;3.00;;;;;;;18.01;30.97;102100.52;101066;1354;71855;-80
2022/02/27 07:58:52;;;;;;;6.40;3.10;;;;;;;18.01;30.97;102092.30;101170;1353;74762;-86
2022/02/27 08:02:14;;;;;;;;;;;;;;;;;;;;;
2022/02/27 08:05:38;;;;;;;4.70;3.10;;;;;;;18.02;30.92;102089.62;99976;1367;61314;-83
2022/02/27 08:08:48;;;;;;;;;;;;;;;;;;;;;
2022/02/27 08:12:15;;;;;;;5.70;3.10;;;;;;;18.02;30.97;102087.48;100633;1357;74770;-81
2022/02/27 08:15:12;;;;;;;4.90;2.90;;;;;;;18.01;30.84;102084.45;100235;1361;61419;-83
2022/02/27 08:18:22;;;;;;;5.80;3.00;;;;;;;18.02;31.00;102077.66;99856;1367;61382;-87
2022/02/27 08:21:32;;;;;;;5.00;3.00;;;;;;;18.02;31.01;102070.17;99942;1365;73101;-81
2022/02/27 08:24:50;;;;;;;4.20;2.60;;;;;;;18.03;31.10;102066.42;99570;1370;76327;-79
2022/02/27 08:27:56;;;;;;;6.10;3.30;;;;;;;18.02;31.00;102054.87;99242;1374;61560;-84
2022/02/27 08:30:41;;;;;;;6.00;3.10;;;;;;;18.02;31.10;102048.79;98765;1382;61455;-82
2022/02/27 08:33:58;;;;;;;5.30;2.40;;;;;;;18.03;31.20;102053.59;98886;1379;71943;-82
2022/02/27 08:36:37;;;;;;;;;;;;;;;;;;;;;
2022/02/27 08:40:20;;;;;;;6.60;3.00;;;;;;;18.03;30.98;102056.26;99017;1376;61230;-81
2022/02/27 08:43:06;;;;;;;5.20;2.90;;;;;;;18.02;31.14;102056.98;99208;1372;61696;-82
2022/02/27 08:46:24;;;;;;;4.50;2.50;;;;;;;18.02;31.15;102055.92;99281;1372;71680;-79
2022/02/27 08:49:55;;;;;;;4.50;2.60;;;;;;;18.02;31.05;102054.33;99218;1373;74751;-83
2022/02/27 08:53:05;;;;;;;6.00;3.10;;;;;;;18.02;31.06;102052.35;99579;1369;61298;-86
2022/02/27 08:55:53;;;;;;;5.00;2.90;;;;;;;18.02;31.08;102055.21;99985;1364;61292;-83
2022/02/27 08:59:00;;;;;;;6.60;3.30;;;;;;;18.03;31.04;102052.17;99682;1367;71902;-82
2022/02/27 09:02:18;;;;;;;5.00;3.00;;;;;;;18.02;31.02;102048.27;99986;1364;74239;-84
2022/02/27 09:05:05;;;;;;;4.80;2.90;;;;;;;18.03;31.07;102046.81;99731;1366;61271;-82
2022/02/27 09:08:40;;;;;;;6.30;2.80;;;;;;;18.02;31.09;102043.80;100140;1361;61219;-81
2022/02/27 09:11:45;;;;;;;6.00;3.00;;;;;;;18.02;31.14;102037.23;100712;1354;73860;-83
2022/02/27 09:14:52;;;;;;;4.10;2.70;;;;;;;18.02;31.13;102035.42;100684;1358;75850;-84
2022/02/27 09:18:07;;;;;;;5.30;3.00;;;;;;;18.02;30.99;102028.15;100297;1361;61674;-83
2022/02/27 09:21:06;;;;;;;6.50;2.90;;;;;;;18.02;31.08;102021.04;100571;1357;61850;-82
2022/02/27 09:23:55;;;;;;;4.50;2.60;;;;;;;18.02;31.04;102017.45;100986;1353;73744;-84
2022/02/27 09:27:08;;;;;;;;;;;;;;;;;;;;;
2022/02/27 09:30:15;;;;;;;4.60;2.90;;;;;;;18.02;31.13;102017.27;101751;1340;61470;-85
2022/02/27 09:33:20;;;;;;;5.60;3.10;;;;;;;18.02;31.10;102017.27;101894;1340;61631;-83
2022/02/27 09:36:19;;;;;;;6.40;2.90;;;;;;;18.02;31.13;102015.85;102043;1331;75368;-83
2022/02/27 09:39:15;;;;;;;5.00;2.80;;;;;;;18.03;31.15;102010.31;102481;1330;74947;-79
2022/02/27 09:42:29;;;;;;;5.30;2.80;;;;;;;18.02;31.22;102009.80;102507;1331;61255;-81
2022/02/27 09:45:46;;;;;;;6.50;3.00;;;;;;;18.03;31.15;102007.27;102516;1329;61943;-85
2022/02/27 09:48:49;;;;;;;;;;;;;;;;;;;;;
2022/02/27 09:55:14;;;;;;;5.80;3.00;;;;;;;18.03;31.26;101997.45;101769;1340;61326;-83
2022/02/27 09:58:22;;;;;;;5.90;3.30;;;;;;;18.03;31.15;101994.77;101847;1340;61395;-81
2022/02/27 10:01:08;;;;;;;7.60;3.10;;;;;;;18.03;31.08;102000.48;101651;1345;74087;-84
2022/02/27 10:04:23;;;;;;;6.10;2.90;;;;;;;18.04;31.19;101996.71;101639;1345;73623;-86
2022/02/27 10:07:34;;;;;;;;;;;;;;;;;;;;;
2022/02/27 10:10:48;;;;;;;5.30;3.10;;;;;;;18.04;31.17;101989.77;100738;1356;61576;-80
2022/02/27 10:13:47;;;;;;;;;;;;;;;;;;;;;
2022/02/27 10:16:45;;;;;;;6.20;2.90;;;;;;;18.03;31.22;101981.77;100653;1357;73719;-78
2022/02/27 10:20:01;;;;;;;;;;;;;;;;;;;;;
2022/02/27 10:23:11;;;;;;;;;;;;;;;;;;;;;
2022/02/27 10:26:31;;;;;;;4.70;2.60;;;;;;;18.03;31.32;101970.20;100638;1355;71880;-82
2022/02/27 10:29:46;;;;;;;;;;;;;;;;;;;;;
2022/02/27 10:32:43;;;;;;;;;;;;;;;;;;;;;
2022/02/27 10:36:27;;;;;;;6.30;2.80;;;;;;;18.04;31.22;101952.17;101359;1351;61337;-82
2022/02/27 10:39:43;;;;;;;6.00;2.60;;;;;;;18.04;31.19;101961.27;101368;1351;73047;-85
2022/02/27 10:43:03;;;;;;;;;;;;;;;;;;;;;
2022/02/27 10:46:19;;;;;;;4.40;2.60;;;;;;;18.04;31.27;101949.88;100822;1357;61604;-84
2022/02/27 10:49:18;;;;;;;5.60;2.50;;;;;;;18.04;31.22;101954.67;101364;1352;61251;-80
2022/02/27 10:52:42;;;;;;;4.90;2.70;;;;;;;18.04;31.22;101957.34;100759;1356;72936;-85
2022/02/27 10:55:49;;;;;;;4.50;2.30;;;;;;;18.04;31.21;101953.95;100171;1366;75837;-84
2022/02/27 10:58:58;;;;;;;4.30;2.40;;;;;;;18.04;31.17;101944.34;100082;1366;61440;-83
2022/02/27 11:02:27;;;;;;;5.70;2.70;;;;;;;18.03;31.31;101936.16;99731;1368;62020;-85
2022/02/27 11:05:33;;;;;;;4.60;2.60;;;;;;;18.03;31.22;101928.52;99717;1368;73750;-79
2022/02/27 11:08:48;;;;;;;4.20;2.50;;;;;;;18.03;31.27;101928.69;99704;1367;72645;-86
2022/02/27 11:11:38;;;;;;;4.80;2.40;;;;;;;18.04;31.10;101925.98;100300;1361;61534;-81
2022/02/27 11:15:06;;;;;;;5.40;2.90;;;;;;;18.04;31.22;101919.39;100241;1364;61358;-84
2022/02/27 11:18:23;;;;;;;4.70;2.50;;;;;;;18.04;31.21;101918.53;100216;1364;71699;-81
2022/02/27 11:22:00;;;;;;;4.70;2.70;;;;;;;18.04;31.29;101914.77;100083;1365;73853;-85
2022/02/27 11:24:58;;;;;;;;;;;;;;;;;;;;;
2022/02/27 11:28:23;;;;;;;4.20;2.60;;;;;;;18.04;31.32;101912.09;100080;1364;61385;-78
2022/02/27 11:31:55;;;;;;;5.20;2.50;;;;;;;18.04;31.35;101902.27;100239;1358;73014;-82
2022/02/27 11:35:14;;;;;;;;;;;;;;;;;;;;;
2022/02/27 11:38:38;;;;;;;4.80;2.60;;;;;;;18.04;31.15;101890.36;100370;1360;61400;-84
2022/02/27 11:41:50;;;;;;;4.40;2.40;;;;;;;18.04;31.16;101889.65;100383;1361;61297;-84
2022/02/27 11:45:24;;;;;;;5.40;2.50;;;;;;;18.04;31.35;101886.80;100373;1361;73908;-81
2022/02/27 11:48:03;;;;;;;6.00;2.70;;;;;;;18.04;31.33;101885.75;100335;1359;73860;-85
2022/02/27 11:54:10;;;;;;;4.00;2.30;;;;;;;18.03;31.26;101869.19;100312;1361;61585;-81
2022/02/27 11:57:04;;;;;;;4.50;2.70;;;;;;;18.04;31.22;101866.13;100272;1362;74353;-80
2022/02/27 12:00:34;;;;;;;4.70;2.50;;;;;;;18.04;31.28;101864.38;101121;1349;76661;-84
2022/02/27 12:04:02;;;;;;;;;;;;;;;;;;;;;
2022/02/27 12:07:46;;;;;;;4.00;2.40;;;;;;;18.03;31.40;101867.27;101718;1337;62630;-82
2022/02/27 12:11:05;;;;;;;3.90;2.20;;;;;;;18.02;31.45;101863.36;101809;1340;73243;-83
2022/02/27 12:14:13;;;;;;;4.40;2.20;;;;;;;18.02;31.23;101858.71;101823;1341;75004;-84
2022/02/27 12:17:07;;;;;;;4.90;2.70;;;;;;;18.03;31.25;101854.61;102060;1338;61217;-81
2022/02/27 12:20:14;;;;;;;;;;;;;;;;;;;;;
2022/02/27 12:23:52;;;;;;;3.60;2.20;;;;;;;18.02;31.33;101851.63;102013;1337;74273;-83
2022/02/27 12:27:22;;;;;;;;;;;;;;;;;;;;;
2022/02/27 12:33:25;;;;;;;4.40;2.50;;;;;;;18.01;31.29;101846.84;102124;1334;61514;-82
2022/02/27 12:36:11;;;;;;;4.40;2.40;;;;;;;18.02;31.28;101841.83;101969;1335;74376;-80
2022/02/27 12:39:04;;;;;;;4.40;2.20;;;;;;;18.02;31.33;101834.89;101962;1335;75909;-80
2022/02/27 12:41:51;;;;;;;4.60;2.60;;;;;;;18.02;31.26;101822.59;101850;1338;61836;-82
2022/02/27 12:45:12;;;;;;;5.70;2.80;;;;;;;18.02;31.20;101823.31;101716;1344;61386;-81
2022/02/27 12:48:14;;;;;;;;;;;;;;;;;;;;;
2022/02/27 12:51:34;;;;;;;4.80;2.30;;;;;;;18.01;31.44;101820.11;101273;1350;76435;-81
2022/02/27 12:54:34;;;;;;;;;;;;;;;;;;;;;
2022/02/27 12:57:29;;;;;;;3.80;2.20;;;;;;;18.01;31.33;101815.50;101541;1350;61771;-83
2022/02/27 13:00:31;;;;;;;4.00;2.40;;;;;;;18.01;31.39;101811.38;101612;1340;72950;-84
2022/02/27 13:03:39;;;;;;;3.70;2.10;;;;;;;18.01;31.36;101806.95;101724;1343;74805;-84
2022/02/27 13:06:45;;;;;;;4.50;2.40;;;;;;;18.00;31.38;101802.35;101470;1349;61501;-81
2022/02/27 13:09:53;;;;;;;;;;;;;;;;;;;;;
2022/02/27 13:13:10;;;;;;;4.30;2.20;;;;;;;18.00;31.35;101800.95;101768;1341;73712;-81
2022/02/27 13:16:10;;;;;;;;;;;;;;;;;;;;;
2022/02/27 13:19:27;;;;;;;4.50;2.30;;;;;;;17.99;31.35;101790.99;101844;1341;60487;-81
2022/02/27 13:22:33;;;;;;;3.90;2.20;;;;;;;17.99;31.49;101781.38;101793;1341;61365;-83
2022/02/27 13:25:45;;;;;;;3.50;2.20;;;;;;;17.99;31.34;101784.08;101667;1345;71661;-86
2022/02/27 13:28:52;;;;;;;3.30;2.00;;;;;;;17.98;31.27;101780.16;101688;1343;74935;-82
2022/02/27 13:32:18;;;;;;;4.40;2.40;;;;;;;17.98;31.42;101781.41;101523;1349;61923;-86
2022/02/27 13:35:20;;;;;;;5.10;2.30;;;;;;;17.98;31.33;101776.98;101510;1350;62631;-84
2022/02/27 13:38:53;;;;;;;4.50;2.60;;;;;;;17.98;31.34;101778.02;101314;1353;72987;-84
2022/02/27 13:41:50;;;;;;;4.20;2.30;;;;;;;17.98;31.33;101779.11;101596;1347;74926;-82
2022/02/27 13:45:08;;;;;;;4.30;2.40;;;;;;;17.98;31.40;101781.06;101667;1345;61281;-82
2022/02/27 13:48:23;;;;;;;3.60;2.10;;;;;;;17.98;31.47;101778.40;101494;1350;61069;-82
2022/02/27 13:51:19;;;;;;;;;;;;;;;;;;;;;
2022/02/27 13:54:44;;;;;;;3.90;2.20;;;;;;;17.98;31.42;101779.86;100229;1364;74746;-83
2022/02/27 13:57:40;;;;;;;3.60;1.90;;;;;;;17.97;31.47;101780.42;99803;1364;62047;-83
2022/02/27 14:00:25;;;;;;;;;;;;;;;;;;;;;
2022/02/27 14:03:34;;;;;;;5.50;2.70;;;;;;;17.97;31.28;101777.56;100872;1354;72720;-83
2022/02/27 14:06:31;;;;;;;4.10;2.30;;;;;;;17.97;31.31;101782.36;101121;1354;75006;-84
2022/02/27 14:09:01;;;;;;;4.40;2.00;;;;;;;17.97;31.38;101774.02;101444;1343;61358;-85
2022/02/27 14:12:07;;;;;;;;;;;;;;;;;;;;;
2022/02/27 14:15:16;;;;;;;;;;;;;;;;;;;;;
2022/02/27 14:19:12;;;;;;;3.60;2.10;;;;;;;17.96;31.25;101769.38;101758;1341;76536;-82
2022/02/27 14:22:09;;;;;;;;;;;;;;;;;;;;;
2022/02/27 14:25:16;;;;;;;3.70;2.40;;;;;;;17.95;31.38;101771.77;101944;1337;61235;-83
2022/02/27 14:28:34;;;;;;;;;;;;;;;;;;;;;
2022/02/27 14:31:52;;;;;;;3.90;1.90;;;;;;;17.95;31.48;101771.05;102472;1326;76234;-83
2022/02/27 14:35:01;;;;;;;3.80;2.20;;;;;;;17.95;31.56;101771.92;102052;1337;61592;-80
2022/02/27 14:38:11;;;;;;;4.50;1.90;;;;;;;17.95;31.43;101773.73;101887;1341;61499;-81
2022/02/27 14:41:06;;;;;;;4.10;2.00;;;;;;;17.95;31.40;101776.20;101654;1347;74081;-83
2022/02/27 14:44:28;;;;;;;3.70;2.00;;;;;;;17.95;31.49;101771.93;101512;1350;73868;-83
2022/02/27 14:47:32;;;;;;;3.90;2.10;;;;;;;17.95;31.44;101769.96;101614;1347;61381;-84
2022/02/27 14:50:39;;;;;;;3.70;2.00;;;;;;;17.96;31.41;101770.67;101241;1353;60047;-87
2022/02/27 14:53:57;;;;;;;4.00;2.20;;;;;;;17.96;31.51;101770.83;100657;1357;71591;-82
2022/02/27 14:56:55;;;;;;;3.80;2.10;;;;;;;17.96;31.45;101767.98;100974;1354;75826;-82
2022/02/27 15:00:51;;;;;;;3.70;2.00;;;;;;;17.95;31.44;101767.83;100502;1359;61246;-82
2022/02/27 15:03:34;;;;;;;4.00;2.10;;;;;;;17.96;31.47;101768.52;100334;1359;61354;-82
2022/02/27 15:06:52;;;;;;;5.30;2.20;;;;;;;17.96;31.47;101769.59;100189;1364;72825;-83
2022/02/27 15:10:01;;;;;;;;;;;;;;;;;;;;;
2022/02/27 15:13:29;;;;;;;;;;;;;;;;;;;;;
2022/02/27 15:16:29;;;;;;;4.10;1.90;;;;;;;17.96;31.51;101755.51;100524;1359;61807;-83
2022/02/27 15:19:34;;;;;;;4.00;2.20;;;;;;;17.96;31.44;101752.13;100610;1359;72866;-86
2022/02/27 15:23:03;;;;;;;3.40;2.00;;;;;;;17.97;31.49;101754.60;100239;1365;74825;-81
2022/02/27 15:25:57;;;;;;;4.30;2.10;;;;;;;17.96;31.37;101751.23;100260;1365;61398;-83
2022/02/27 15:29:23;;;;;;;3.60;2.00;;;;;;;17.96;31.49;101755.88;100361;1362;61254;-78
2022/02/27 15:32:38;;;;;;;4.30;2.10;;;;;;;17.96;31.44;101756.92;100023;1367;73859;-83
2022/02/27 15:35:44;;;;;;;3.40;2.20;;;;;;;17.96;31.47;101753.52;99691;1370;73751;-84
2022/02/27 15:39:10;;;;;;;3.80;2.00;;;;;;;17.97;31.59;101750.85;99256;1373;61259;-87
2022/02/27 15:42:25;;;;;;;;;;;;;;;;;;;;;
2022/02/27 15:45:13;;;;;;;3.90;2.20;;;;;;;17.97;31.62;101754.58;98965;1378;73234;-84
2022/02/27 15:48:20;;;;;;;4.20;2.10;;;;;;;17.97;31.58;101753.32;99052;1378;76106;-83
2022/02/27 15:51:19;;;;;;;3.10;1.90;;;;;;;17.98;31.69;101755.45;98813;1380;61356;-80
2022/02/27 15:54:49;;;;;;;5.50;2.20;;;;;;;17.97;31.52;101753.69;99311;1373;61206;-80
2022/02/27 15:57:46;;;;;;;4.50;2.00;;;;;;;17.97;31.58;101762.23;99187;1376;73267;-82
2022/02/27 16:00:36;;;;;;;;;;;;;;;;;;;;;
2022/02/27 16:03:43;;;;;;;4.20;2.20;;;;;;;17.97;31.59;101765.62;99551;1369;61223;-81
2022/02/27 16:06:46;;;;;;;4.30;2.10;;;;;;;17.97;31.61;101770.79;99619;1370;61261;-83
2022/02/27 16:09:41;;;;;;;5.20;2.40;;;;;;;17.97;31.65;101775.06;99525;1366;71692;-81
2022/02/27 16:15:59;;;;;;;4.60;2.70;;;;;;;17.96;31.65;101778.12;99516;1366;61377;-80
2022/02/27 16:18:55;;;;;;;;;;;;;;;17.97;31.75;101785.04;99998;1361;62069;-82
2022/02/27 16:21:40;;;;;;;3.90;2.00;;;;;;;17.94;31.69;101785.14;100501;1355;74488;-83
2022/02/27 16:24:38;;;;;;;3.60;2.00;;;;;;;17.95;31.64;101784.41;100638;1358;75761;-82
2022/02/27 16:27:37;;;;;;;3.50;2.00;;;;;;;17.94;31.69;101786.74;101116;1347;61161;-81
2022/02/27 16:30:49;;;;;;;3.20;1.80;;;;;;;17.93;31.72;101781.98;101587;1346;61322;-81
2022/02/27 16:33:34;;;;;;;3.80;2.30;;;;;;;17.93;31.63;101780.02;101586;1346;73000;-80
2022/02/27 16:37:22;;;;;;;4.20;2.10;;;;;;;17.93;31.63;101782.88;101924;1337;73563;-83
2022/02/27 16:40:09;;;;;;;3.60;1.90;;;;;;;17.93;31.70;101785.38;102007;1337;61332;-85
2022/02/27 16:43:37;;;;;;;;;;;;;;;;;;;;;
2022/02/27 16:46:32;;;;;;;4.00;1.90;;;;;;;17.92;31.78;101786.13;101970;1335;72700;-82
2022/02/27 16:49:40;;;;;;;3.90;2.10;;;;;;;17.92;31.66;101790.92;102180;1335;74902;-82
2022/02/27 16:52:52;;;;;;;3.50;2.10;;;;;;;17.91;31.83;101790.23;101999;1335;61467;-85